sensor_id;sensor_type;location;lat;lon;timestamp;temperature;humidity
4813;DHT22;2420;51.202;8.698;2022-12-20T00:00:44;1.50;1.00
4813;DHT22;2420;51.202;8.698;2022-12-20T00:03:10;1.60;1.00
4813;DHT22;2420;51.202;8.698;2022-12-20T00:05:40;1.60;1.00
4813;DHT22;2420;51.202;8.698;2022-12-20T00:08:06;1.50;1.00
4813;DHT22;2420;51.202;8.698;2022-12-20T00:10:39;1.30;1.00
4813;DHT22;2420;51.202;8.698;2022-12-20T00:13:05;1.10;1.00
4813;DHT22;2420;51.202;8.698;2022-12-20T00:15:31;1.40;1.00
4813;DHT22;2420;51.202;8.698;2022-12-20T00:17:58;1.30;1.00
4813;DHT22;2420;51.202;8.698;2022-12-20T00:20:24;1.30;1.00
4813;DHT22;2420;51.202;8.698;2022-12-20T00:22:50;1.20;1.00
4813;DHT22;2420;51.202;8.698;2022-12-20T00:25:16;1.10;1.00
4813;DHT22;2420;51.202;8.698;2022-12-20T00:27:41;1.10;1.00
4813;DHT22;2420;51.202;8.698;2022-12-20T00:30:07;1.00;1.00
4813;DHT22;2420;51.202;8.698;2022-12-20T00:32:33;1.00;1.00
4813;DHT22;2420;51.202;8.698;2022-12-20T00:34:59;1.30;1.00
4813;DHT22;2420;51.202;8.698;2022-12-20T00:37:24;1.00;1.00
4813;DHT22;2420;51.202;8.698;2022-12-20T00:39:50;1.20;1.00
4813;DHT22;2420;51.202;8.698;2022-12-20T00:42:15;1.20;1.00
4813;DHT22;2420;51.202;8.698;2022-12-20T00:44:41;1.30;1.00
4813;DHT22;2420;51.202;8.698;2022-12-20T00:47:06;1.00;1.00
4813;DHT22;2420;51.202;8.698;2022-12-20T00:49:32;1.50;1.00
4813;DHT22;2420;51.202;8.698;2022-12-20T00:51:57;1.10;1.00
4813;DHT22;2420;51.202;8.698;2022-12-20T00:54:23;1.40;1.00
4813;DHT22;2420;51.202;8.698;2022-12-20T00:56:48;1.00;1.00
4813;DHT22;2420;51.202;8.698;2022-12-20T00:59:14;1.10;1.00
4813;DHT22;2420;51.202;8.698;2022-12-20T01:01:40;1.00;1.00
4813;DHT22;2420;51.202;8.698;2022-12-20T01:04:05;1.10;1.00
4813;DHT22;2420;51.202;8.698;2022-12-20T01:06:31;1.10;1.00
4813;DHT22;2420;51.202;8.698;2022-12-20T01:08:57;1.20;1.00
4813;DHT22;2420;51.202;8.698;2022-12-20T01:11:25;1.30;1.00
4813;DHT22;2420;51.202;8.698;2022-12-20T01:13:54;1.20;1.00
4813;DHT22;2420;51.202;8.698;2022-12-20T01:16:28;1.30;1.00
4813;DHT22;2420;51.202;8.698;2022-12-20T01:18:55;1.40;1.00
4813;DHT22;2420;51.202;8.698;2022-12-20T01:21:22;1.30;1.00
4813;DHT22;2420;51.202;8.698;2022-12-20T01:23:47;1.20;1.00
4813;DHT22;2420;51.202;8.698;2022-12-20T01:26:16;1.40;1.00
4813;DHT22;2420;51.202;8.698;2022-12-20T01:28:43;1.20;1.00
4813;DHT22;2420;51.202;8.698;2022-12-20T01:31:11;1.40;1.00
4813;DHT22;2420;51.202;8.698;2022-12-20T01:33:37;1.20;1.00
4813;DHT22;2420;51.202;8.698;2022-12-20T01:36:06;1.20;1.00
4813;DHT22;2420;51.202;8.698;2022-12-20T01:38:32;1.20;1.00
4813;DHT22;2420;51.202;8.698;2022-12-20T01:40:58;1.20;1.00
4813;DHT22;2420;51.202;8.698;2022-12-20T01:43:25;1.00;1.00
4813;DHT22;2420;51.202;8.698;2022-12-20T01:45:54;1.30;1.00
4813;DHT22;2420;51.202;8.698;2022-12-20T01:48:24;1.10;1.00
4813;DHT22;2420;51.202;8.698;2022-12-20T01:50:51;1.30;1.00
4813;DHT22;2420;51.202;8.698;2022-12-20T01:53:19;1.30;1.00
4813;DHT22;2420;51.202;8.698;2022-12-20T01:55:45;1.50;1.00
4813;DHT22;2420;51.202;8.698;2022-12-20T01:58:13;1.30;1.00
4813;DHT22;2420;51.202;8.698;2022-12-20T02:00:39;1.60;1.00
4813;DHT22;2420;51.202;8.698;2022-12-20T02:03:11;1.50;1.00
4813;DHT22;2420;51.202;8.698;2022-12-20T02:05:39;1.70;1.00
4813;DHT22;2420;51.202;8.698;2022-12-20T02:08:05;1.50;1.00
4813;DHT22;2420;51.202;8.698;2022-12-20T02:16:04;1.20;1.00
4813;DHT22;2420;51.202;8.698;2022-12-20T02:21:13;1.60;1.00
4813;DHT22;2420;51.202;8.698;2022-12-20T02:30:01;1.40;1.00
4813;DHT22;2420;51.202;8.698;2022-12-20T02:32:30;1.30;1.00
4813;DHT22;2420;51.202;8.698;2022-12-20T02:34:58;1.20;1.00
4813;DHT22;2420;51.202;8.698;2022-12-20T02:37:24;1.30;1.00
4813;DHT22;2420;51.202;8.698;2022-12-20T02:39:49;1.30;1.00
4813;DHT22;2420;51.202;8.698;2022-12-20T02:42:18;1.40;1.00
4813;DHT22;2420;51.202;8.698;2022-12-20T02:44:49;1.20;1.00
4813;DHT22;2420;51.202;8.698;2022-12-20T02:47:44;1.50;1.00
4813;DHT22;2420;51.202;8.698;2022-12-20T02:50:12;1.30;1.00
4813;DHT22;2420;51.202;8.698;2022-12-20T02:52:39;1.60;1.00
4813;DHT22;2420;51.202;8.698;2022-12-20T02:55:05;1.70;1.00
4813;DHT22;2420;51.202;8.698;2022-12-20T02:57:42;1.40;1.00
4813;DHT22;2420;51.202;8.698;2022-12-20T03:00:11;1.50;1.00
4813;DHT22;2420;51.202;8.698;2022-12-20T03:02:38;1.60;1.00
4813;DHT22;2420;51.202;8.698;2022-12-20T03:05:25;1.60;1.00
4813;DHT22;2420;51.202;8.698;2022-12-20T03:07:51;1.70;1.00
4813;DHT22;2420;51.202;8.698;2022-12-20T03:10:17;1.70;1.00
4813;DHT22;2420;51.202;8.698;2022-12-20T03:12:43;1.40;1.00
4813;DHT22;2420;51.202;8.698;2022-12-20T03:15:09;1.70;1.00
4813;DHT22;2420;51.202;8.698;2022-12-20T03:17:34;1.70;1.00
4813;DHT22;2420;51.202;8.698;2022-12-20T03:20:00;1.90;1.00
4813;DHT22;2420;51.202;8.698;2022-12-20T03:22:26;1.60;1.00
4813;DHT22;2420;51.202;8.698;2022-12-20T03:24:51;1.70;1.00
4813;DHT22;2420;51.202;8.698;2022-12-20T03:27:17;1.80;1.00
4813;DHT22;2420;51.202;8.698;2022-12-20T03:29:43;1.70;1.00
4813;DHT22;2420;51.202;8.698;2022-12-20T03:32:10;1.80;1.00
4813;DHT22;2420;51.202;8.698;2022-12-20T03:34:36;1.70;1.00
4813;DHT22;2420;51.202;8.698;2022-12-20T03:37:01;2.00;1.00
4813;DHT22;2420;51.202;8.698;2022-12-20T03:39:27;1.60;1.00
4813;DHT22;2420;51.202;8.698;2022-12-20T03:41:52;1.90;1.00
4813;DHT22;2420;51.202;8.698;2022-12-20T03:44:18;1.60;1.00
4813;DHT22;2420;51.202;8.698;2022-12-20T03:46:44;1.90;1.00
4813;DHT22;2420;51.202;8.698;2022-12-20T03:49:09;1.70;1.00
4813;DHT22;2420;51.202;8.698;2022-12-20T03:51:35;1.80;1.00
4813;DHT22;2420;51.202;8.698;2022-12-20T03:54:00;2.00;1.00
4813;DHT22;2420;51.202;8.698;2022-12-20T03:56:26;1.80;1.00
4813;DHT22;2420;51.202;8.698;2022-12-20T03:58:51;1.70;1.00
4813;DHT22;2420;51.202;8.698;2022-12-20T04:01:22;1.70;1.00
4813;DHT22;2420;51.202;8.698;2022-12-20T04:03:48;1.90;1.00
4813;DHT22;2420;51.202;8.698;2022-12-20T04:06:14;1.80;1.00
4813;DHT22;2420;51.202;8.698;2022-12-20T04:08:40;1.90;1.00
4813;DHT22;2420;51.202;8.698;2022-12-20T04:11:05;1.90;1.00
4813;DHT22;2420;51.202;8.698;2022-12-20T04:13:47;1.90;1.00
4813;DHT22;2420;51.202;8.698;2022-12-20T04:16:15;2.00;1.00
4813;DHT22;2420;51.202;8.698;2022-12-20T04:18:41;2.10;1.00
4813;DHT22;2420;51.202;8.698;2022-12-20T04:21:07;1.90;1.00
4813;DHT22;2420;51.202;8.698;2022-12-20T04:23:34;1.70;1.00
4813;DHT22;2420;51.202;8.698;2022-12-20T04:26:01;1.90;1.00
4813;DHT22;2420;51.202;8.698;2022-12-20T04:28:27;2.00;1.00
4813;DHT22;2420;51.202;8.698;2022-12-20T04:30:53;1.90;1.00
4813;DHT22;2420;51.202;8.698;2022-12-20T04:33:19;1.80;1.00
4813;DHT22;2420;51.202;8.698;2022-12-20T04:35:44;1.80;1.00
4813;DHT22;2420;51.202;8.698;2022-12-20T04:38:10;1.90;1.00
4813;DHT22;2420;51.202;8.698;2022-12-20T04:40:35;1.90;1.00
4813;DHT22;2420;51.202;8.698;2022-12-20T04:43:01;2.20;1.00
4813;DHT22;2420;51.202;8.698;2022-12-20T04:45:26;2.00;1.00
4813;DHT22;2420;51.202;8.698;2022-12-20T04:47:52;2.20;1.00
4813;DHT22;2420;51.202;8.698;2022-12-20T04:50:17;2.10;1.00
4813;DHT22;2420;51.202;8.698;2022-12-20T04:52:44;2.10;1.00
4813;DHT22;2420;51.202;8.698;2022-12-20T04:55:28;2.00;1.00
4813;DHT22;2420;51.202;8.698;2022-12-20T04:57:54;1.90;1.00
4813;DHT22;2420;51.202;8.698;2022-12-20T05:00:20;2.20;1.00
4813;DHT22;2420;51.202;8.698;2022-12-20T05:02:45;1.90;1.00
4813;DHT22;2420;51.202;8.698;2022-12-20T05:05:11;2.30;1.00
4813;DHT22;2420;51.202;8.698;2022-12-20T05:07:37;2.20;1.00
4813;DHT22;2420;51.202;8.698;2022-12-20T05:10:03;2.30;1.00
4813;DHT22;2420;51.202;8.698;2022-12-20T05:12:28;2.10;1.00
4813;DHT22;2420;51.202;8.698;2022-12-20T05:14:54;2.30;1.00
4813;DHT22;2420;51.202;8.698;2022-12-20T05:17:19;2.20;1.00
4813;DHT22;2420;51.202;8.698;2022-12-20T05:19:45;2.10;1.00
4813;DHT22;2420;51.202;8.698;2022-12-20T05:22:11;2.00;1.00
4813;DHT22;2420;51.202;8.698;2022-12-20T05:24:55;2.10;1.00
4813;DHT22;2420;51.202;8.698;2022-12-20T05:27:39;1.90;1.00
4813;DHT22;2420;51.202;8.698;2022-12-20T05:30:05;2.10;1.00
4813;DHT22;2420;51.202;8.698;2022-12-20T05:32:31;2.30;1.00
4813;DHT22;2420;51.202;8.698;2022-12-20T05:34:57;2.40;1.00
4813;DHT22;2420;51.202;8.698;2022-12-20T05:37:23;2.10;1.00
4813;DHT22;2420;51.202;8.698;2022-12-20T05:39:48;2.30;1.00
4813;DHT22;2420;51.202;8.698;2022-12-20T05:42:14;2.50;1.00
4813;DHT22;2420;51.202;8.698;2022-12-20T05:44:40;2.30;1.00
4813;DHT22;2420;51.202;8.698;2022-12-20T05:47:05;2.60;1.00
4813;DHT22;2420;51.202;8.698;2022-12-20T05:49:31;2.30;1.00
4813;DHT22;2420;51.202;8.698;2022-12-20T05:51:56;2.50;1.00
4813;DHT22;2420;51.202;8.698;2022-12-20T05:54:22;2.50;1.00
4813;DHT22;2420;51.202;8.698;2022-12-20T05:56:49;2.60;1.00
4813;DHT22;2420;51.202;8.698;2022-12-20T05:59:15;2.40;1.00
4813;DHT22;2420;51.202;8.698;2022-12-20T06:01:42;2.30;1.00
4813;DHT22;2420;51.202;8.698;2022-12-20T06:04:07;2.40;1.00
4813;DHT22;2420;51.202;8.698;2022-12-20T06:06:33;2.50;1.00
4813;DHT22;2420;51.202;8.698;2022-12-20T06:08:58;2.20;1.00
4813;DHT22;2420;51.202;8.698;2022-12-20T06:11:24;2.40;1.00
4813;DHT22;2420;51.202;8.698;2022-12-20T06:13:50;2.30;1.00
4813;DHT22;2420;51.202;8.698;2022-12-20T06:16:15;2.60;1.00
4813;DHT22;2420;51.202;8.698;2022-12-20T06:18:43;2.50;1.00
4813;DHT22;2420;51.202;8.698;2022-12-20T06:21:09;2.20;1.00
4813;DHT22;2420;51.202;8.698;2022-12-20T06:23:34;2.20;1.00
4813;DHT22;2420;51.202;8.698;2022-12-20T06:26:00;2.10;1.00
4813;DHT22;2420;51.202;8.698;2022-12-20T06:28:25;2.30;1.00
4813;DHT22;2420;51.202;8.698;2022-12-20T06:30:52;2.30;1.00
4813;DHT22;2420;51.202;8.698;2022-12-20T06:33:18;2.20;1.00
4813;DHT22;2420;51.202;8.698;2022-12-20T06:35:44;2.70;1.00
4813;DHT22;2420;51.202;8.698;2022-12-20T06:38:09;2.40;1.00
4813;DHT22;2420;51.202;8.698;2022-12-20T06:40:35;2.80;1.00
4813;DHT22;2420;51.202;8.698;2022-12-20T06:43:00;2.60;1.00
4813;DHT22;2420;51.202;8.698;2022-12-20T06:45:26;2.40;1.00
4813;DHT22;2420;51.202;8.698;2022-12-20T06:47:51;2.60;1.00
4813;DHT22;2420;51.202;8.698;2022-12-20T06:50:17;2.80;1.00
4813;DHT22;2420;51.202;8.698;2022-12-20T06:52:42;2.70;1.00
4813;DHT22;2420;51.202;8.698;2022-12-20T06:55:08;2.70;1.00
4813;DHT22;2420;51.202;8.698;2022-12-20T06:57:34;2.60;1.00
4813;DHT22;2420;51.202;8.698;2022-12-20T06:59:59;2.70;1.00
4813;DHT22;2420;51.202;8.698;2022-12-20T07:02:25;2.70;1.00
4813;DHT22;2420;51.202;8.698;2022-12-20T07:04:50;2.70;1.00
4813;DHT22;2420;51.202;8.698;2022-12-20T07:07:16;2.80;1.00
4813;DHT22;2420;51.202;8.698;2022-12-20T07:09:41;2.80;1.00
4813;DHT22;2420;51.202;8.698;2022-12-20T07:12:08;2.90;1.00
4813;DHT22;2420;51.202;8.698;2022-12-20T07:14:34;2.80;1.00
4813;DHT22;2420;51.202;8.698;2022-12-20T07:16:59;2.90;1.00
4813;DHT22;2420;51.202;8.698;2022-12-20T07:19:25;2.90;1.00
4813;DHT22;2420;51.202;8.698;2022-12-20T07:21:51;2.80;1.00
4813;DHT22;2420;51.202;8.698;2022-12-20T07:24:16;2.80;1.00
4813;DHT22;2420;51.202;8.698;2022-12-20T07:26:45;2.80;1.00
4813;DHT22;2420;51.202;8.698;2022-12-20T07:29:11;2.90;1.00
4813;DHT22;2420;51.202;8.698;2022-12-20T07:31:37;3.20;1.00
4813;DHT22;2420;51.202;8.698;2022-12-20T07:34:03;3.10;1.00
4813;DHT22;2420;51.202;8.698;2022-12-20T07:36:28;3.10;1.00
4813;DHT22;2420;51.202;8.698;2022-12-20T07:38:54;3.10;1.00
4813;DHT22;2420;51.202;8.698;2022-12-20T07:41:19;3.10;1.00
4813;DHT22;2420;51.202;8.698;2022-12-20T07:43:45;3.20;1.00
4813;DHT22;2420;51.202;8.698;2022-12-20T07:46:13;3.20;1.00
4813;DHT22;2420;51.202;8.698;2022-12-20T07:48:39;3.30;1.00
4813;DHT22;2420;51.202;8.698;2022-12-20T07:51:11;3.20;1.00
4813;DHT22;2420;51.202;8.698;2022-12-20T07:53:41;3.20;1.00
4813;DHT22;2420;51.202;8.698;2022-12-20T07:56:09;3.10;1.00
4813;DHT22;2420;51.202;8.698;2022-12-20T07:58:38;3.10;1.00
4813;DHT22;2420;51.202;8.698;2022-12-20T08:01:05;3.00;1.00
4813;DHT22;2420;51.202;8.698;2022-12-20T08:03:37;3.00;1.00
4813;DHT22;2420;51.202;8.698;2022-12-20T08:06:05;3.20;1.00
4813;DHT22;2420;51.202;8.698;2022-12-20T08:08:32;3.30;1.00
4813;DHT22;2420;51.202;8.698;2022-12-20T08:11:01;2.90;1.00
4813;DHT22;2420;51.202;8.698;2022-12-20T08:13:27;3.30;1.00
4813;DHT22;2420;51.202;8.698;2022-12-20T08:15:53;2.90;1.00
4813;DHT22;2420;51.202;8.698;2022-12-20T08:18:18;3.00;1.00
4813;DHT22;2420;51.202;8.698;2022-12-20T08:20:44;3.20;1.00
4813;DHT22;2420;51.202;8.698;2022-12-20T08:23:10;3.10;1.00
4813;DHT22;2420;51.202;8.698;2022-12-20T08:25:35;3.00;1.00
4813;DHT22;2420;51.202;8.698;2022-12-20T08:28:01;3.00;1.00
4813;DHT22;2420;51.202;8.698;2022-12-20T08:30:28;3.20;1.00
4813;DHT22;2420;51.202;8.698;2022-12-20T08:32:54;3.20;1.00
4813;DHT22;2420;51.202;8.698;2022-12-20T08:35:20;3.20;1.00
4813;DHT22;2420;51.202;8.698;2022-12-20T08:37:46;3.20;1.00
4813;DHT22;2420;51.202;8.698;2022-12-20T08:40:13;3.40;1.00
4813;DHT22;2420;51.202;8.698;2022-12-20T08:42:39;3.40;1.00
4813;DHT22;2420;51.202;8.698;2022-12-20T08:45:05;3.30;1.00
4813;DHT22;2420;51.202;8.698;2022-12-20T08:47:30;3.20;1.00
4813;DHT22;2420;51.202;8.698;2022-12-20T08:49:56;3.60;1.00
4813;DHT22;2420;51.202;8.698;2022-12-20T08:52:21;3.30;1.00
4813;DHT22;2420;51.202;8.698;2022-12-20T08:54:47;3.20;1.00
4813;DHT22;2420;51.202;8.698;2022-12-20T08:57:12;3.10;1.00
4813;DHT22;2420;51.202;8.698;2022-12-20T08:59:38;3.30;1.00
4813;DHT22;2420;51.202;8.698;2022-12-20T09:02:04;3.10;1.00
4813;DHT22;2420;51.202;8.698;2022-12-20T09:04:29;3.10;1.00
4813;DHT22;2420;51.202;8.698;2022-12-20T09:06:55;3.50;1.00
4813;DHT22;2420;51.202;8.698;2022-12-20T09:09:20;3.10;1.00
4813;DHT22;2420;51.202;8.698;2022-12-20T09:11:46;3.30;1.00
4813;DHT22;2420;51.202;8.698;2022-12-20T09:14:12;3.10;1.00
4813;DHT22;2420;51.202;8.698;2022-12-20T09:16:38;3.20;1.00
4813;DHT22;2420;51.202;8.698;2022-12-20T09:19:05;3.00;1.00
4813;DHT22;2420;51.202;8.698;2022-12-20T09:21:31;3.40;1.00
4813;DHT22;2420;51.202;8.698;2022-12-20T09:23:57;3.30;1.00
4813;DHT22;2420;51.202;8.698;2022-12-20T09:26:23;3.50;1.00
4813;DHT22;2420;51.202;8.698;2022-12-20T09:28:49;3.50;1.00
4813;DHT22;2420;51.202;8.698;2022-12-20T09:31:17;3.50;1.00
4813;DHT22;2420;51.202;8.698;2022-12-20T09:33:43;3.30;1.00
4813;DHT22;2420;51.202;8.698;2022-12-20T09:36:14;3.60;1.00
4813;DHT22;2420;51.202;8.698;2022-12-20T09:38:39;3.60;1.00
4813;DHT22;2420;51.202;8.698;2022-12-20T09:41:07;3.70;1.00
4813;DHT22;2420;51.202;8.698;2022-12-20T09:43:40;3.50;1.00
4813;DHT22;2420;51.202;8.698;2022-12-20T09:46:06;3.50;1.00
4813;DHT22;2420;51.202;8.698;2022-12-20T09:48:37;3.60;1.00
4813;DHT22;2420;51.202;8.698;2022-12-20T09:56:34;3.60;1.00
4813;DHT22;2420;51.202;8.698;2022-12-20T09:59:12;3.40;1.00
4813;DHT22;2420;51.202;8.698;2022-12-20T10:01:42;3.30;1.00
4813;DHT22;2420;51.202;8.698;2022-12-20T10:12:48;3.80;1.00
4813;DHT22;2420;51.202;8.698;2022-12-20T10:15:19;3.80;1.00
4813;DHT22;2420;51.202;8.698;2022-12-20T10:22:55;4.10;1.00
4813;DHT22;2420;51.202;8.698;2022-12-20T10:25:25;3.80;1.00
4813;DHT22;2420;51.202;8.698;2022-12-20T10:27:55;3.90;1.00
4813;DHT22;2420;51.202;8.698;2022-12-20T10:30:24;3.80;1.00
4813;DHT22;2420;51.202;8.698;2022-12-20T10:32:52;4.00;1.00
4813;DHT22;2420;51.202;8.698;2022-12-20T10:35:27;3.80;1.00
4813;DHT22;2420;51.202;8.698;2022-12-20T10:38:02;3.70;1.00
4813;DHT22;2420;51.202;8.698;2022-12-20T10:40:32;3.70;1.00
4813;DHT22;2420;51.202;8.698;2022-12-20T10:42:59;3.90;1.00
4813;DHT22;2420;51.202;8.698;2022-12-20T10:45:37;4.00;1.00
4813;DHT22;2420;51.202;8.698;2022-12-20T10:48:06;4.00;1.00
4813;DHT22;2420;51.202;8.698;2022-12-20T10:50:55;4.00;1.00
4813;DHT22;2420;51.202;8.698;2022-12-20T10:53:23;4.00;1.00
4813;DHT22;2420;51.202;8.698;2022-12-20T10:55:50;4.00;1.00
4813;DHT22;2420;51.202;8.698;2022-12-20T11:01:21;4.10;1.00
4813;DHT22;2420;51.202;8.698;2022-12-20T11:06:23;3.90;1.00
4813;DHT22;2420;51.202;8.698;2022-12-20T11:08:49;4.20;1.00
4813;DHT22;2420;51.202;8.698;2022-12-20T11:13:44;4.20;1.00
4813;DHT22;2420;51.202;8.698;2022-12-20T11:16:49;4.10;1.00
4813;DHT22;2420;51.202;8.698;2022-12-20T11:19:38;4.30;1.00
4813;DHT22;2420;51.202;8.698;2022-12-20T11:27:55;4.10;1.00
4813;DHT22;2420;51.202;8.698;2022-12-20T11:30:41;4.20;1.00
4813;DHT22;2420;51.202;8.698;2022-12-20T11:33:40;3.90;1.00
4813;DHT22;2420;51.202;8.698;2022-12-20T11:36:37;4.00;1.00
4813;DHT22;2420;51.202;8.698;2022-12-20T11:39:12;3.90;1.00
4813;DHT22;2420;51.202;8.698;2022-12-20T11:44:45;3.90;1.00
4813;DHT22;2420;51.202;8.698;2022-12-20T11:47:35;4.00;1.00
4813;DHT22;2420;51.202;8.698;2022-12-20T11:50:12;4.00;1.00
4813;DHT22;2420;51.202;8.698;2022-12-20T11:53:02;4.20;1.00
4813;DHT22;2420;51.202;8.698;2022-12-20T11:55:34;4.30;1.00
4813;DHT22;2420;51.202;8.698;2022-12-20T12:00:46;4.40;1.00
4813;DHT22;2420;51.202;8.698;2022-12-20T12:05:55;4.30;1.00
4813;DHT22;2420;51.202;8.698;2022-12-20T12:08:47;4.40;1.00
4813;DHT22;2420;51.202;8.698;2022-12-20T12:11:19;4.60;1.00
4813;DHT22;2420;51.202;8.698;2022-12-20T12:13:47;4.40;1.00
4813;DHT22;2420;51.202;8.698;2022-12-20T12:16:17;4.60;1.00
4813;DHT22;2420;51.202;8.698;2022-12-20T12:18:43;4.50;1.00
4813;DHT22;2420;51.202;8.698;2022-12-20T12:21:26;4.40;1.00
4813;DHT22;2420;51.202;8.698;2022-12-20T12:24:23;4.50;1.00
4813;DHT22;2420;51.202;8.698;2022-12-20T12:26:49;4.50;1.00
4813;DHT22;2420;51.202;8.698;2022-12-20T12:29:17;4.50;1.00
4813;DHT22;2420;51.202;8.698;2022-12-20T12:40:13;4.50;1.00
4813;DHT22;2420;51.202;8.698;2022-12-20T12:45:44;4.50;1.00
4813;DHT22;2420;51.202;8.698;2022-12-20T12:51:27;4.40;1.00
4813;DHT22;2420;51.202;8.698;2022-12-20T12:54:23;4.50;1.00
4813;DHT22;2420;51.202;8.698;2022-12-20T12:56:48;4.30;1.00
4813;DHT22;2420;51.202;8.698;2022-12-20T12:59:26;4.50;1.00
4813;DHT22;2420;51.202;8.698;2022-12-20T13:09:52;4.60;1.00
4813;DHT22;2420;51.202;8.698;2022-12-20T13:20:36;4.60;1.00
4813;DHT22;2420;51.202;8.698;2022-12-20T13:25:45;4.60;1.00
4813;DHT22;2420;51.202;8.698;2022-12-20T13:33:43;4.60;1.00
4813;DHT22;2420;51.202;8.698;2022-12-20T13:38:48;4.40;1.00
4813;DHT22;2420;51.202;8.698;2022-12-20T13:41:31;4.50;1.00
4813;DHT22;2420;51.202;8.698;2022-12-20T13:49:40;4.40;1.00
4813;DHT22;2420;51.202;8.698;2022-12-20T13:52:20;4.50;1.00
4813;DHT22;2420;51.202;8.698;2022-12-20T13:54:49;4.30;1.00
4813;DHT22;2420;51.202;8.698;2022-12-20T13:57:38;4.30;1.00
4813;DHT22;2420;51.202;8.698;2022-12-20T14:00:06;4.40;1.00
4813;DHT22;2420;51.202;8.698;2022-12-20T14:02:40;4.30;1.00
4813;DHT22;2420;51.202;8.698;2022-12-20T14:07:47;4.30;1.00
4813;DHT22;2420;51.202;8.698;2022-12-20T14:10:22;4.50;1.00
4813;DHT22;2420;51.202;8.698;2022-12-20T14:12:50;4.40;1.00
4813;DHT22;2420;51.202;8.698;2022-12-20T14:15:29;4.30;1.00
4813;DHT22;2420;51.202;8.698;2022-12-20T14:17:55;4.50;1.00
4813;DHT22;2420;51.202;8.698;2022-12-20T14:20:24;4.30;1.00
4813;DHT22;2420;51.202;8.698;2022-12-20T14:23:02;4.30;1.00
4813;DHT22;2420;51.202;8.698;2022-12-20T14:25:33;4.40;1.00
4813;DHT22;2420;51.202;8.698;2022-12-20T14:27:59;4.40;1.00
4813;DHT22;2420;51.202;8.698;2022-12-20T14:30:51;4.30;1.00
4813;DHT22;2420;51.202;8.698;2022-12-20T14:33:28;4.40;1.00
4813;DHT22;2420;51.202;8.698;2022-12-20T14:35:54;4.30;1.00
4813;DHT22;2420;51.202;8.698;2022-12-20T14:38:28;4.20;1.00
4813;DHT22;2420;51.202;8.698;2022-12-20T14:40:57;4.10;1.00
4813;DHT22;2420;51.202;8.698;2022-12-20T14:43:32;4.10;1.00
4813;DHT22;2420;51.202;8.698;2022-12-20T14:48:33;4.10;1.00
4813;DHT22;2420;51.202;8.698;2022-12-20T14:51:03;4.10;1.00
4813;DHT22;2420;51.202;8.698;2022-12-20T14:53:29;4.20;1.00
4813;DHT22;2420;51.202;8.698;2022-12-20T14:55:55;4.30;1.00
4813;DHT22;2420;51.202;8.698;2022-12-20T14:58:27;4.10;1.00
4813;DHT22;2420;51.202;8.698;2022-12-20T15:03:54;4.10;1.00
4813;DHT22;2420;51.202;8.698;2022-12-20T15:06:40;4.20;1.00
4813;DHT22;2420;51.202;8.698;2022-12-20T15:09:07;3.90;1.00
4813;DHT22;2420;51.202;8.698;2022-12-20T15:11:35;3.90;1.00
4813;DHT22;2420;51.202;8.698;2022-12-20T15:14:01;4.00;1.00
4813;DHT22;2420;51.202;8.698;2022-12-20T15:16:29;3.70;1.00
4813;DHT22;2420;51.202;8.698;2022-12-20T15:18:59;4.00;1.00
4813;DHT22;2420;51.202;8.698;2022-12-20T15:23:56;3.90;1.00
4813;DHT22;2420;51.202;8.698;2022-12-20T15:26:24;3.90;1.00
4813;DHT22;2420;51.202;8.698;2022-12-20T15:28:50;3.70;1.00
4813;DHT22;2420;51.202;8.698;2022-12-20T15:31:18;3.80;1.00
4813;DHT22;2420;51.202;8.698;2022-12-20T15:33:44;3.80;1.00
4813;DHT22;2420;51.202;8.698;2022-12-20T15:36:22;3.70;1.00
4813;DHT22;2420;51.202;8.698;2022-12-20T15:38:49;3.70;1.00
4813;DHT22;2420;51.202;8.698;2022-12-20T15:41:24;3.60;1.00
4813;DHT22;2420;51.202;8.698;2022-12-20T15:43:54;3.40;1.00
4813;DHT22;2420;51.202;8.698;2022-12-20T15:46:20;3.60;1.00
4813;DHT22;2420;51.202;8.698;2022-12-20T15:48:46;3.50;1.00
4813;DHT22;2420;51.202;8.698;2022-12-20T15:51:33;3.40;1.00
4813;DHT22;2420;51.202;8.698;2022-12-20T15:54:01;3.60;1.00
4813;DHT22;2420;51.202;8.698;2022-12-20T15:56:28;3.40;1.00
4813;DHT22;2420;51.202;8.698;2022-12-20T15:58:53;3.40;1.00
4813;DHT22;2420;51.202;8.698;2022-12-20T16:01:25;3.40;1.00
4813;DHT22;2420;51.202;8.698;2022-12-20T16:03:51;3.40;1.00
4813;DHT22;2420;51.202;8.698;2022-12-20T16:06:17;3.30;1.00
4813;DHT22;2420;51.202;8.698;2022-12-20T16:08:42;3.30;1.00
4813;DHT22;2420;51.202;8.698;2022-12-20T16:11:23;3.20;1.00
4813;DHT22;2420;51.202;8.698;2022-12-20T16:13:49;3.20;1.00
4813;DHT22;2420;51.202;8.698;2022-12-20T16:16:21;3.40;1.00
4813;DHT22;2420;51.202;8.698;2022-12-20T16:18:47;3.30;1.00
4813;DHT22;2420;51.202;8.698;2022-12-20T16:21:21;3.40;1.00
4813;DHT22;2420;51.202;8.698;2022-12-20T16:23:47;3.30;1.00
4813;DHT22;2420;51.202;8.698;2022-12-20T16:26:16;3.40;1.00
4813;DHT22;2420;51.202;8.698;2022-12-20T16:28:44;3.10;1.00
4813;DHT22;2420;51.202;8.698;2022-12-20T16:31:16;3.10;1.00
4813;DHT22;2420;51.202;8.698;2022-12-20T16:33:45;3.00;1.00
4813;DHT22;2420;51.202;8.698;2022-12-20T16:36:11;3.20;1.00
4813;DHT22;2420;51.202;8.698;2022-12-20T16:38:38;3.10;1.00
4813;DHT22;2420;51.202;8.698;2022-12-20T16:41:27;3.40;1.00
4813;DHT22;2420;51.202;8.698;2022-12-20T16:43:55;3.20;1.00
4813;DHT22;2420;51.202;8.698;2022-12-20T16:46:22;3.30;1.00
4813;DHT22;2420;51.202;8.698;2022-12-20T16:48:50;3.40;1.00
4813;DHT22;2420;51.202;8.698;2022-12-20T16:53:55;3.20;1.00
4813;DHT22;2420;51.202;8.698;2022-12-20T16:56:20;3.00;1.00
4813;DHT22;2420;51.202;8.698;2022-12-20T16:58:46;3.20;1.00
4813;DHT22;2420;51.202;8.698;2022-12-20T17:01:17;3.30;1.00
4813;DHT22;2420;51.202;8.698;2022-12-20T17:03:44;3.10;1.00
4813;DHT22;2420;51.202;8.698;2022-12-20T17:06:11;3.10;1.00
4813;DHT22;2420;51.202;8.698;2022-12-20T17:08:38;3.20;1.00
4813;DHT22;2420;51.202;8.698;2022-12-20T17:11:16;3.20;1.00
4813;DHT22;2420;51.202;8.698;2022-12-20T17:13:43;3.10;1.00
4813;DHT22;2420;51.202;8.698;2022-12-20T17:16:13;3.20;1.00
4813;DHT22;2420;51.202;8.698;2022-12-20T17:18:46;3.10;1.00
4813;DHT22;2420;51.202;8.698;2022-12-20T17:23:47;3.30;1.00
4813;DHT22;2420;51.202;8.698;2022-12-20T17:26:15;3.20;1.00
4813;DHT22;2420;51.202;8.698;2022-12-20T17:28:41;3.30;1.00
4813;DHT22;2420;51.202;8.698;2022-12-20T17:31:32;3.20;1.00
4813;DHT22;2420;51.202;8.698;2022-12-20T17:34:16;3.20;1.00
4813;DHT22;2420;51.202;8.698;2022-12-20T17:36:46;3.00;1.00
4813;DHT22;2420;51.202;8.698;2022-12-20T17:39:12;3.30;1.00
4813;DHT22;2420;51.202;8.698;2022-12-20T17:41:38;3.10;1.00
4813;DHT22;2420;51.202;8.698;2022-12-20T17:44:04;3.10;1.00
4813;DHT22;2420;51.202;8.698;2022-12-20T17:46:31;3.10;1.00
4813;DHT22;2420;51.202;8.698;2022-12-20T17:48:57;3.30;1.00
4813;DHT22;2420;51.202;8.698;2022-12-20T17:51:23;3.20;1.00
4813;DHT22;2420;51.202;8.698;2022-12-20T17:53:52;3.20;1.00
4813;DHT22;2420;51.202;8.698;2022-12-20T17:56:23;3.10;1.00
4813;DHT22;2420;51.202;8.698;2022-12-20T17:58:49;3.20;1.00
4813;DHT22;2420;51.202;8.698;2022-12-20T18:01:21;3.10;1.00
4813;DHT22;2420;51.202;8.698;2022-12-20T18:03:48;3.10;1.00
4813;DHT22;2420;51.202;8.698;2022-12-20T18:06:15;3.30;1.00
4813;DHT22;2420;51.202;8.698;2022-12-20T18:08:40;3.20;1.00
4813;DHT22;2420;51.202;8.698;2022-12-20T18:11:10;3.30;1.00
4813;DHT22;2420;51.202;8.698;2022-12-20T18:13:35;3.20;1.00
4813;DHT22;2420;51.202;8.698;2022-12-20T18:16:08;3.10;1.00
4813;DHT22;2420;51.202;8.698;2022-12-20T18:18:34;3.40;1.00
4813;DHT22;2420;51.202;8.698;2022-12-20T18:21:11;3.30;1.00
4813;DHT22;2420;51.202;8.698;2022-12-20T18:23:38;3.20;1.00
4813;DHT22;2420;51.202;8.698;2022-12-20T18:26:15;3.10;1.00
4813;DHT22;2420;51.202;8.698;2022-12-20T18:28:44;3.00;1.00
4813;DHT22;2420;51.202;8.698;2022-12-20T18:31:12;3.20;1.00
4813;DHT22;2420;51.202;8.698;2022-12-20T18:33:38;3.10;1.00
4813;DHT22;2420;51.202;8.698;2022-12-20T18:36:12;3.10;1.00
4813;DHT22;2420;51.202;8.698;2022-12-20T18:38:39;3.00;1.00
4813;DHT22;2420;51.202;8.698;2022-12-20T18:41:07;3.30;1.00
4813;DHT22;2420;51.202;8.698;2022-12-20T18:43:35;3.20;1.00